Pagrindinis puslapis
METAR-TAF:

METAR-TAF

Oro uostai :

Dalaman, Turkija

platuma: 36-42N, ilguma: 028-47E, Aukštis: 7 m

Dabartinis oras

Ataskaita buvo paskelbta 20 minutes, ne 06:50 UTC
Vėjas 7 kt iš Pietvakarių
Temperatūra 22°C
Drėgmė 65%
Slėgis 1015 hPa
Matomumas 10 km arba daugiau
Mažai debesys ne aukštis 3000 ft

METAR: LTBS 140650Z 22007KT 9999 FEW030 22/15 Q1015 NOSIG

Laikas: 10:10 (07:10 UTC)

Prognozė

Ataskaita buvo paskelbta 2 valandos ir 30 minutes, ne 04:40 UTC
Prognozė galioja nuo 14 metu 06 UTC su 15 metu 06 UTC
Vėjas 2 kt nuo kintamojo kryptimis
Matomumas 10 km arba daugiau
Mažai debesys ne aukštis 3000 ft
Tapsmas
nuo 14 metu 06 UTC su 14 metu 08 UTC
Vėjas 12 kt iš Pietų/Pietvakarių
Tapsmas
nuo 14 metu 15 UTC su 14 metu 17 UTC
Vėjas 2 kt nuo kintamojo kryptimis

TAF: LTBS 140440Z 1406/1506 VRB02KT 9999 FEW030 BECMG 1406/1408 21012KT BECMG 1415/1417 VRB02KT

Orai ataskaitas ir orų prognozės (METAR, TAF).

turimą stotys yra geltonos ir raudonos taškus žemėlapyje.

Perkelti pele per norėdami pamatyti stoties vardą.

Tada spustelėkite, norėdami matyti oro stebėjimo ir prognozės.

Norėdami pakeisti žemėlapį: spustelėkite ant žalios mygtukų su juodo kryžiaus žemyn,; žalią mygtuką su brūkšneliu, jei norite nutolinti; arba žalių rodyklių gretimoms žemėlapius.


METAR-TAF: